Forside
METAR-TAF:

METAR-TAF

Lufthavne :

Bamako, Mali

Breddekreds: 12-32N, længdekreds: 007-57W, højde: 380 m

Aktuelle vejr

Denne rapport blev lavet for 19 minutter siden, kl. 01:00 UTC
Vind 2 kt fra nordøst
Temperatur 23°C
Fugtighed 29%
Tryk 1015 hPa
Sigt: 8000 m

METAR: GABS 210100Z 04002KT 8000 NSC 23/04 Q1015 NOSIG

Tid: 01:19 (01:19 UTC)

Vejrudsigter

Denne rapport blev lavet for 2 timer og 19 minutter siden, kl. 23:00 UTC
Foreløbig gælder fra 21 på 00 UTC til 22 på 06 UTC
Vind 10 kt fra nord med vindstød på up til 20 kt
Sigt: 8000 m
Sandsynlighed 40% :
Midlertidig
fra 21 på 06 UTC til 21 på 15 UTC
Sigt: 4000 m
Udbredt støv

TAF: GABS 202300Z 2100/2206 36010G20KT 8000 NSC PROB40 TEMPO 2106/2115 4000 DU

Vejrobservationer og prognoser fra mere end 4000 lufthavne (METAR og TAF).

De gule og røde prikker repræsenterer de meteorologiske stationer.

Flyt musen over at se navnet på stationen.

Så klik over at se vejr observationer og prognoser.

At skifte det kort: Klik på de grønne knapper med et sort kors for at zoome ind; på den grønne knap med en bindestreg for at zoome ud; eller på de grønne pile for tilstødende kort.


METAR-TAF: